KBIX/BIX METAR and TAF weather

Enter ICAO airport designator
Station Type Date Time Source
KBIX METAR 2021/02/24 16:56 UTC NOAA

KBIX 241656Z AUTO 16006KT 10SM CLR 19/11 A3016 RMK AO2 SLP216 T01940114 $


Station Type Date Time Source
KBIX Decoded METAR 2021/02/24 16:56 UTC NOAA

Keesler Air Force Base / Biloxi, MS, United States (KBIX) 30-25N 088-55W
Feb 24, 2021 - 11:56 AM EST / 2021.02.24 1656 UTC
Wind: from the SSE (160 degrees) at 7 MPH (6 KT):0
Visibility: 10 mile(s):0
Sky conditions: clear
Temperature: 66.9 F (19.4 C)
Dew Point: 52.5 F (11.4 C)
Relative Humidity: 59%
Pressure (altimeter): 30.16 in. Hg (1021 hPa)
ob: KBIX 241656Z AUTO 16006KT 10SM CLR 19/11 A3016 RMK AO2 SLP216 T01940114
cycle: 17

Station Type Date Time Source
KBIX TAF 2021/02/24 11:20 UTC NOAA

TAF COR KBIX 241110Z 2411/2517 VRB06KT 9999 SKC QNH3007INS
BECMG 2502/2503 22009KT 9000 BR SCT020 BKN035 QNH3012INS TX22/2420Z TN05/2412Z

Example: see airport list